Decoded Metar for KGEV (JEFFERSON in NC, USA) (IATA:GEV) | Meteo·Mobile Aviation Weather
aviador You're here:

KGEV Decoded Metar

JEFFERSON in NC, USA
Report Time2019-03-25 14:00:00
UTC Time2019-03-25 14:14:09
Flight Rules vfr VFR
WindCalm
Visibility9999 m
Phenomena:N/A
Clouds:Broken 070 Hf
Expected CloudBase > 3,200 ft AGL from Temp-Dew spread
Ceiling7,000 ft
Temp09°C (ISA 0)
Dew Point01°C (58% RH)
AAT7.2°C
QNH1017 hPa
Density Alt3,179 ft
Elevation3,179 ft
Report Wrong Elevation
Raw Report
KGEV 251400Z AUTO 00000KT 10SM BKN070 09/01 A3003 RMK AO2
T00900007=

Extra information for KGEV:More info

Metar Taf Metar & Taf Last 4 Metars F.Rules Stats Wind Profile Meteogram Temp Stats Airport Information Weather charts Add Link Nearby VenuesMetar ALERT Operation Metar Decoded Social comments

AIRNAV info for KGEV